Mosier, Oregon
Current Conditions -  °F | °C
As of 5:39 PM on Tuesday 25 Nov 2014 (Local Time) from K4S2 Reporting Station
Overcast Overcast  
Wind Chill: 59°   Ceiling: 3900
Heat Index: 59°   Visibility: 10mi
Dew Point: 50°   Wind: 5mph
Humidity: 72%   Direction: 290°WNW
Pressure: 30.23"   Gusts: NA
Location:  45.68°N, 121.4°W
Report Text: K4S2 260139Z AUTO 29004KT 10SM BKN039 BKN046 OVC055 15/10 A3023 RMK AO2 SLP253 T01500100
Loading
Personal Weather Stations






























Interactive Weather Map New forecast layout! Learn more

10-Day Weather Forecast

Advertisements
Track Severe Weather on mobile